createdAt,value
2018-07-11T00:00:11.176Z,80.18
2018-07-11T00:00:37.312Z,79.99
2018-07-11T00:01:03.454Z,80.37
2018-07-11T00:01:29.608Z,80.56
2018-07-11T00:01:55.754Z,80.27
2018-07-11T00:02:21.890Z,80.18
2018-07-11T00:02:48.020Z,80.66
2018-07-11T00:03:14.178Z,80.27
2018-07-11T00:03:40.323Z,80.47
2018-07-11T00:04:06.455Z,80.18
2018-07-11T00:04:32.596Z,81.04
2018-07-11T00:04:58.728Z,80.27
2018-07-11T00:05:24.892Z,80.76
2018-07-11T00:05:51.037Z,80.37
2018-07-11T00:06:17.178Z,80.76
2018-07-11T00:06:43.317Z,80.56
2018-07-11T00:07:09.476Z,80.08
2018-07-11T00:07:35.616Z,80.56
2018-07-11T00:08:01.753Z,80.47
2018-07-11T00:08:27.892Z,80.08
2018-07-11T00:08:54.024Z,80.18
2018-07-11T00:09:20.159Z,80.66
2018-07-11T00:09:46.295Z,80.94
2018-07-11T00:10:12.464Z,80.94
2018-07-11T00:10:38.600Z,80.56
2018-07-11T00:11:04.750Z,80.94
2018-07-11T00:11:30.889Z,81.04
2018-07-11T00:11:57.019Z,80.85
2018-07-11T00:12:23.159Z,80.85
2018-07-11T00:12:49.303Z,80.47
2018-07-11T00:13:15.438Z,80.94
2018-07-11T00:13:41.576Z,80.94
2018-07-11T00:14:07.714Z,80.94
2018-07-11T00:14:33.852Z,80.94
2018-07-11T00:15:00.111Z,81.13
2018-07-11T00:15:26.141Z,81.33
2018-07-11T00:15:52.279Z,81.13
2018-07-11T00:16:18.416Z,80.85
2018-07-11T00:16:44.553Z,81.33
2018-07-11T00:17:10.699Z,81.13
2018-07-11T00:17:36.831Z,81.33
2018-07-11T00:18:02.967Z,81.23
2018-07-11T00:18:29.130Z,81.33
2018-07-11T00:18:55.270Z,81.43
2018-07-11T00:19:21.409Z,81.23
2018-07-11T00:19:47.541Z,80.94
2018-07-11T00:20:13.680Z,81.13
2018-07-11T00:20:39.816Z,81.04
2018-07-11T00:21:05.979Z,81.13
2018-07-11T00:21:32.128Z,81.13
2018-07-11T00:21:58.292Z,80.94
2018-07-11T00:22:24.432Z,81.04
2018-07-11T00:22:50.565Z,81.43
2018-07-11T00:23:16.730Z,81.43
2018-07-11T00:23:42.870Z,81.71
2018-07-11T00:24:09.008Z,81.52
2018-07-11T00:24:35.140Z,81.33
2018-07-11T00:25:01.282Z,81.23
2018-07-11T00:25:27.444Z,80.85
2018-07-11T00:25:53.598Z,81.13
2018-07-11T00:26:19.738Z,81.43
2018-07-11T00:26:45.874Z,81.33
2018-07-11T00:27:12.056Z,81.33
2018-07-11T00:27:38.242Z,81.13
2018-07-11T00:28:04.379Z,81.52
2018-07-11T00:28:30.536Z,81.33
2018-07-11T00:28:56.680Z,81.62
2018-07-11T00:29:22.831Z,81.52
2018-07-11T00:29:48.999Z,81.43
2018-07-11T00:30:15.139Z,81.52
2018-07-11T00:30:41.274Z,81.81
2018-07-11T00:31:07.413Z,81.52
2018-07-11T00:31:33.557Z,81.62
2018-07-11T00:31:59.699Z,81.43
2018-07-11T00:32:25.879Z,81.81
2018-07-11T00:32:52.035Z,81.62
2018-07-11T00:33:18.170Z,81.33
2018-07-11T00:33:44.313Z,81.23
2018-07-11T00:34:10.451Z,80.94
2018-07-11T00:34:36.589Z,81.23
2018-07-11T00:35:02.737Z,81.13
2018-07-11T00:35:28.894Z,81.43
2018-07-11T00:35:55.037Z,81.43
2018-07-11T00:36:21.168Z,81.43
2018-07-11T00:36:47.312Z,81.13
2018-07-11T00:37:13.539Z,80.94
2018-07-11T00:37:39.637Z,81.23
2018-07-11T00:38:05.765Z,81.52
2018-07-11T00:38:31.897Z,82.09
2018-07-11T00:38:58.068Z,82.19
2018-07-11T00:39:24.227Z,82.19
2018-07-11T00:39:50.363Z,81.81
2018-07-11T00:40:16.507Z,82
2018-07-11T00:40:42.665Z,82
2018-07-11T00:41:08.792Z,82.19
2018-07-11T00:41:34.960Z,82
2018-07-11T00:42:01.100Z,81.9
2018-07-11T00:42:27.233Z,81.33
2018-07-11T00:42:53.371Z,81.52
2018-07-11T00:43:19.529Z,81.62
2018-07-11T00:43:45.666Z,81.52
2018-07-11T00:44:11.804Z,81.71
2018-07-11T00:44:37.943Z,81.33
2018-07-11T00:45:04.076Z,81.81
2018-07-11T00:45:30.218Z,82.09
2018-07-11T00:45:56.351Z,81.52
2018-07-11T00:46:22.488Z,81.71
2018-07-11T00:46:48.626Z,81.81
2018-07-11T00:47:14.765Z,81.62
2018-07-11T00:47:40.899Z,81.33
2018-07-11T00:48:07.040Z,81.71
2018-07-11T00:48:33.171Z,81.71
2018-07-11T00:48:59.312Z,81.81
2018-07-11T00:49:25.451Z,81.71
2018-07-11T00:49:51.589Z,82.29
2018-07-11T00:50:17.745Z,81.81
2018-07-11T00:50:43.887Z,81.62
2018-07-11T00:51:10.077Z,81.66
2018-07-11T00:51:36.177Z,81.52
2018-07-11T00:52:02.311Z,81.52
2018-07-11T00:52:28.443Z,81.71
2018-07-11T00:52:54.586Z,81.52
2018-07-11T00:53:20.721Z,81.33
2018-07-11T00:53:46.886Z,81.71
2018-07-11T00:54:13.031Z,81.71
2018-07-11T00:54:39.184Z,81.81
2018-07-11T00:55:05.322Z,81.62
2018-07-11T00:55:31.466Z,81.52
2018-07-11T00:55:57.604Z,81.66
2018-07-11T00:56:23.767Z,81.52
2018-07-11T00:56:49.965Z,81.71
2018-07-11T00:57:16.045Z,81.9
2018-07-11T00:57:42.207Z,81.85
2018-07-11T00:58:08.344Z,82.09
2018-07-11T00:58:34.479Z,81.85
2018-07-11T00:59:00.621Z,81.66
2018-07-11T00:59:26.764Z,81.9
2018-07-11T00:59:52.922Z,81.81
2018-07-11T01:00:19.060Z,82.04
2018-07-11T01:00:45.221Z,81.75
2018-07-11T01:01:11.364Z,81.85
2018-07-11T01:01:37.501Z,81.85
2018-07-11T01:02:03.664Z,82.04
2018-07-11T01:02:29.800Z,82.14
2018-07-11T01:02:55.935Z,81.75
2018-07-11T01:03:22.077Z,81.95
2018-07-11T01:03:48.216Z,82.14
2018-07-11T01:04:14.346Z,81.56
2018-07-11T01:04:40.513Z,81.46
2018-07-11T01:05:06.647Z,81.46
2018-07-11T01:05:32.782Z,81.56
2018-07-11T01:05:58.918Z,81.46
2018-07-11T01:06:25.051Z,81.46
2018-07-11T01:06:51.211Z,81.75
2018-07-11T01:07:17.379Z,81.37
2018-07-11T01:07:43.513Z,81.56
2018-07-11T01:08:09.652Z,81.56
2018-07-11T01:08:35.789Z,81.66
2018-07-11T01:09:01.933Z,81.66
2018-07-11T01:09:28.066Z,81.37
2018-07-11T01:09:54.240Z,81.37
2018-07-11T01:10:20.382Z,81.85
2018-07-11T01:10:46.517Z,81.66
2018-07-11T01:11:12.655Z,81.56
2018-07-11T01:11:38.792Z,81.56
2018-07-11T01:12:04.940Z,81.56
2018-07-11T01:12:31.077Z,81.56
2018-07-11T01:12:57.216Z,81.75
2018-07-11T01:13:23.379Z,81.75
2018-07-11T01:13:49.514Z,81.56
2018-07-11T01:14:15.681Z,81.46
2018-07-11T01:14:41.826Z,81.56
2018-07-11T01:15:07.993Z,81.46
2018-07-11T01:15:34.152Z,81.18
2018-07-11T01:16:00.285Z,80.99
2018-07-11T01:16:26.467Z,80.79
2018-07-11T01:16:52.603Z,80.79
2018-07-11T01:17:18.746Z,81.08
2018-07-11T01:17:44.909Z,80.99
2018-07-11T01:18:11.043Z,81.18
2018-07-11T01:18:37.178Z,81.18
2018-07-11T01:19:03.317Z,81.08
2018-07-11T01:19:29.507Z,81.18
2018-07-11T01:19:55.637Z,81.18
2018-07-11T01:20:21.785Z,81.27
2018-07-11T01:20:47.943Z,81.08
2018-07-11T01:21:14.077Z,81.08
2018-07-11T01:21:40.213Z,81.27
2018-07-11T01:22:06.347Z,81.18
2018-07-11T01:22:32.519Z,81.18
2018-07-11T01:22:58.655Z,81.18
2018-07-11T01:23:24.788Z,81.18
2018-07-11T01:23:50.927Z,81.18
2018-07-11T01:24:17.069Z,81.08
2018-07-11T01:24:43.209Z,81.08
2018-07-11T01:25:09.342Z,81.18
2018-07-11T01:25:35.481Z,81.56
2018-07-11T01:26:01.616Z,81.18
2018-07-11T01:26:27.756Z,80.99
2018-07-11T01:26:53.892Z,81.18
2018-07-11T01:27:20.099Z,80.99
2018-07-11T01:27:46.237Z,81.18
2018-07-11T01:28:12.373Z,81.46
2018-07-11T01:28:38.513Z,81.27
2018-07-11T01:29:04.646Z,81.27
2018-07-11T01:29:30.814Z,81.37
2018-07-11T01:29:56.971Z,81.18
2018-07-11T01:30:23.128Z,81.46
2018-07-11T01:30:49.287Z,81.46
2018-07-11T01:31:15.423Z,81.37
2018-07-11T01:31:41.555Z,80.99
2018-07-11T01:32:07.695Z,80.7
2018-07-11T01:32:33.834Z,80.79
2018-07-11T01:32:59.974Z,80.6
2018-07-11T01:33:26.108Z,80.7
2018-07-11T01:33:52.256Z,81.27
2018-07-11T01:34:18.396Z,81.37
2018-07-11T01:34:44.534Z,80.6
2018-07-11T01:35:10.666Z,80.6
2018-07-11T01:35:36.808Z,81.37
2018-07-11T01:36:02.945Z,81.18
2018-07-11T01:36:29.085Z,81.27
2018-07-11T01:36:55.224Z,81.08
2018-07-11T01:37:21.357Z,81.08
2018-07-11T01:37:47.497Z,81.08
2018-07-11T01:38:13.633Z,81.46
2018-07-11T01:38:39.773Z,81.18
2018-07-11T01:39:05.932Z,81.08
2018-07-11T01:39:32.081Z,81.18
2018-07-11T01:39:58.239Z,81.27
2018-07-11T01:40:24.379Z,81.27
2018-07-11T01:40:50.523Z,81.18
2018-07-11T01:41:16.656Z,80.99
2018-07-11T01:41:42.792Z,80.89
2018-07-11T01:42:08.934Z,80.79
2018-07-11T01:42:35.074Z,80.51
2018-07-11T01:43:01.230Z,80.7
2018-07-11T01:43:27.369Z,80.41
2018-07-11T01:43:53.538Z,80.6
2018-07-11T01:44:19.700Z,80.79
2018-07-11T01:44:45.841Z,80.89
2018-07-11T01:45:11.978Z,81.27
2018-07-11T01:45:38.123Z,81.37
2018-07-11T01:46:04.257Z,80.99
2018-07-11T01:46:30.452Z,81.08
2018-07-11T01:46:56.585Z,80.89
2018-07-11T01:47:22.728Z,80.6
2018-07-11T01:47:48.859Z,80.7
2018-07-11T01:48:14.995Z,80.6
2018-07-11T01:48:41.159Z,80.6
2018-07-11T01:49:07.299Z,80.89
2018-07-11T01:49:33.429Z,80.89
2018-07-11T01:49:59.567Z,81.08
2018-07-11T01:50:25.703Z,80.99
2018-07-11T01:50:51.870Z,81.37
2018-07-11T01:51:18.003Z,81.27
2018-07-11T01:51:44.133Z,81.27
2018-07-11T01:52:10.326Z,81.08
2018-07-11T01:52:36.484Z,81.27
2018-07-11T01:53:02.627Z,81.46
2018-07-11T01:53:28.765Z,81.27
2018-07-11T01:53:54.920Z,80.99
2018-07-11T01:54:21.080Z,81.08
2018-07-11T01:54:47.211Z,81.18
2018-07-11T01:55:13.345Z,81.18
2018-07-11T01:55:39.489Z,80.85
2018-07-11T01:56:05.626Z,80.99
2018-07-11T01:56:31.760Z,81.13
2018-07-11T01:56:57.922Z,81.33
2018-07-11T01:57:24.065Z,81.13
2018-07-11T01:57:50.201Z,81.13
2018-07-11T01:58:16.341Z,81.56
2018-07-11T01:58:42.480Z,81.62
2018-07-11T01:59:08.620Z,81.56
2018-07-11T01:59:34.782Z,81.52
2018-07-11T02:00:00.921Z,81.52
2018-07-11T02:00:27.058Z,81.56
2018-07-11T02:00:53.198Z,81.62
2018-07-11T02:01:19.360Z,81.52
2018-07-11T02:01:45.544Z,81.43
2018-07-11T02:02:11.680Z,81.46
2018-07-11T02:02:37.820Z,81.43
2018-07-11T02:03:03.990Z,81.85
2018-07-11T02:03:30.120Z,81.52
2018-07-11T02:03:56.257Z,81.71
2018-07-11T02:04:22.389Z,81.52
2018-07-11T02:04:48.528Z,81.43
2018-07-11T02:05:14.670Z,81.62
2018-07-11T02:05:40.811Z,81.43
2018-07-11T02:06:06.948Z,81.52
2018-07-11T02:06:33.080Z,81.43
2018-07-11T02:06:59.227Z,81.33
2018-07-11T02:07:25.375Z,82
2018-07-11T02:07:51.515Z,81.33
2018-07-11T02:08:17.655Z,81.23
2018-07-11T02:08:43.788Z,82
2018-07-11T02:09:09.945Z,81.9
2018-07-11T02:09:36.095Z,81.71
2018-07-11T02:10:02.224Z,82.09
2018-07-11T02:10:28.383Z,82
2018-07-11T02:10:54.568Z,81.62
2018-07-11T02:11:20.707Z,82.19
2018-07-11T02:11:46.838Z,81.71
2018-07-11T02:12:12.979Z,81.81
2018-07-11T02:12:39.111Z,81.62
2018-07-11T02:13:05.279Z,81.9
2018-07-11T02:13:31.432Z,81.71
2018-07-11T02:13:57.573Z,81.71
2018-07-11T02:14:23.703Z,81.62
2018-07-11T02:14:49.847Z,81.71
2018-07-11T02:15:16.002Z,81.9
2018-07-11T02:15:42.143Z,81.52
2018-07-11T02:16:08.273Z,81.52
2018-07-11T02:16:34.437Z,81.62
2018-07-11T02:17:00.575Z,81.52
2018-07-11T02:17:26.734Z,81.71
2018-07-11T02:17:52.870Z,81.81
2018-07-11T02:18:19.010Z,81.9
2018-07-11T02:18:45.143Z,81.33
2018-07-11T02:19:11.290Z,81.62
2018-07-11T02:19:37.428Z,81.52
2018-07-11T02:20:03.564Z,81.71
2018-07-11T02:20:29.719Z,82.19
2018-07-11T02:20:55.853Z,81.62
2018-07-11T02:21:21.992Z,81.52
2018-07-11T02:21:48.133Z,81.71
2018-07-11T02:22:14.271Z,81.43
2018-07-11T02:22:40.424Z,81.62
2018-07-11T02:23:06.568Z,81.52
2018-07-11T02:23:32.701Z,81.9
2018-07-11T02:23:58.829Z,81.9
2018-07-11T02:24:24.971Z,81.9
2018-07-11T02:24:51.105Z,81.62
2018-07-11T02:25:17.256Z,81.62
2018-07-11T02:25:43.418Z,81.52
2018-07-11T02:26:09.555Z,81.52
2018-07-11T02:26:35.684Z,81.52
2018-07-11T02:27:01.825Z,81.52
2018-07-11T02:27:27.964Z,81.71
2018-07-11T02:27:54.105Z,81.71
2018-07-11T02:28:20.268Z,81.71
2018-07-11T02:28:46.429Z,81.33
2018-07-11T02:29:12.589Z,81.52
2018-07-11T02:29:38.752Z,81.9
2018-07-11T02:30:04.893Z,81.62
2018-07-11T02:30:31.069Z,81.9
2018-07-11T02:30:57.215Z,82.19
2018-07-11T02:31:23.367Z,81.9
2018-07-11T02:31:49.522Z,82.38
2018-07-11T02:32:15.680Z,81.9
2018-07-11T02:32:41.838Z,82.09
2018-07-11T02:33:08.025Z,82.43
2018-07-11T02:33:34.186Z,82.38
2018-07-11T02:34:00.350Z,82.48
2018-07-11T02:34:26.493Z,82.57
2018-07-11T02:34:52.666Z,82.09
2018-07-11T02:35:18.809Z,82.29
2018-07-11T02:35:44.991Z,82.29
2018-07-11T02:36:11.176Z,81.81
2018-07-11T02:36:37.374Z,82.24
2018-07-11T02:37:03.507Z,82.06
2018-07-11T02:37:29.640Z,82.24
2018-07-11T02:37:55.775Z,81.96
2018-07-11T02:38:21.937Z,82.09
2018-07-11T02:38:48.068Z,81.62
2018-07-11T02:39:14.226Z,81.67
2018-07-11T02:39:40.393Z,82.34
2018-07-11T02:40:06.574Z,82.06
2018-07-11T02:40:32.727Z,82.34
2018-07-11T02:40:58.893Z,82.53
2018-07-11T02:41:25.035Z,82.53
2018-07-11T02:41:51.177Z,82.34
2018-07-11T02:42:17.338Z,82.53
2018-07-11T02:42:43.507Z,82.15
2018-07-11T02:43:09.699Z,82.63
2018-07-11T02:43:35.867Z,82.43
2018-07-11T02:44:02.055Z,82.24
2018-07-11T02:44:28.236Z,82.53
2018-07-11T02:44:54.401Z,81.96
2018-07-11T02:45:20.557Z,82.73
2018-07-11T02:45:46.726Z,82.43
2018-07-11T02:46:12.860Z,82.43
2018-07-11T02:46:38.993Z,82.43
2018-07-11T02:47:05.158Z,82.53
2018-07-11T02:47:31.332Z,82.43
2018-07-11T02:47:57.465Z,82.73
2018-07-11T02:48:23.604Z,82.24
2018-07-11T02:48:49.742Z,82.73
2018-07-11T02:49:15.874Z,82.63
2018-07-11T02:49:42.013Z,82.63
2018-07-11T02:50:08.174Z,82.63
2018-07-11T02:50:34.353Z,82.53
2018-07-11T02:51:00.532Z,82.34
2018-07-11T02:51:26.670Z,82.34
2018-07-11T02:51:52.831Z,82.53
2018-07-11T02:52:18.969Z,82.43
2018-07-11T02:52:45.101Z,82.15
2018-07-11T02:53:11.254Z,82.53
2018-07-11T02:53:37.397Z,82.43
2018-07-11T02:54:03.554Z,82.43
2018-07-11T02:54:29.715Z,82.34
2018-07-11T02:54:55.893Z,82.53
2018-07-11T02:55:22.077Z,82.43
2018-07-11T02:55:48.256Z,82.53
2018-07-11T02:56:14.424Z,82.43
2018-07-11T02:56:40.580Z,82.53
2018-07-11T02:57:06.765Z,82.34
2018-07-11T02:57:32.940Z,82.53
2018-07-11T02:57:59.119Z,82.34
2018-07-11T02:58:25.279Z,82.53
2018-07-11T02:58:51.407Z,82.43
2018-07-11T02:59:17.593Z,82.34
2018-07-11T02:59:43.748Z,82.24
2018-07-11T03:00:09.916Z,82.15
2018-07-11T03:00:36.045Z,82.53
2018-07-11T03:01:02.245Z,82.53
2018-07-11T03:01:28.384Z,82.43
2018-07-11T03:01:54.597Z,82.53
2018-07-11T03:02:20.746Z,82.53
2018-07-11T03:02:46.902Z,82.34
2018-07-11T03:03:13.132Z,82.34
2018-07-11T03:03:39.343Z,82.43
2018-07-11T03:04:05.821Z,82.43
2018-07-11T03:04:32.108Z,82.43
2018-07-11T03:04:58.261Z,82.63
2018-07-11T03:05:24.496Z,82.43
2018-07-11T03:05:50.649Z,82.34
2018-07-11T03:06:16.985Z,82.34
2018-07-11T03:06:43.224Z,82.43
2018-07-11T03:07:09.360Z,82.34
2018-07-11T03:07:35.567Z,82.53
2018-07-11T03:08:01.702Z,82.43
2018-07-11T03:08:27.843Z,82.34
2018-07-11T03:08:53.975Z,82.63
2018-07-11T03:09:20.168Z,82.43
2018-07-11T03:09:46.333Z,82.53
2018-07-11T03:10:12.476Z,81.86
2018-07-11T03:10:38.658Z,82.06
2018-07-11T03:11:04.848Z,82.82
2018-07-11T03:11:30.981Z,82.06
2018-07-11T03:11:57.167Z,82.24
2018-07-11T03:12:23.331Z,82.06
2018-07-11T03:12:49.512Z,82.06
2018-07-11T03:13:15.668Z,81.48
2018-07-11T03:13:41.852Z,81.67
2018-07-11T03:14:07.989Z,81.48
2018-07-11T03:14:34.141Z,81.57
2018-07-11T03:15:00.298Z,81.96
2018-07-11T03:15:26.442Z,81.29
2018-07-11T03:15:52.571Z,81.38
2018-07-11T03:16:18.715Z,81.67
2018-07-11T03:16:44.892Z,82.06
2018-07-11T03:17:11.041Z,81.29
2018-07-11T03:17:37.203Z,81.86
2018-07-11T03:18:03.339Z,81.77
2018-07-11T03:18:29.495Z,81.96
2018-07-11T03:18:55.633Z,81.77
2018-07-11T03:19:21.797Z,81.67
2018-07-11T03:19:47.960Z,81.67
2018-07-11T03:20:14.113Z,81.57
2018-07-11T03:20:40.274Z,81.96
2018-07-11T03:21:06.412Z,81.77
2018-07-11T03:21:32.596Z,81.96
2018-07-11T03:21:58.736Z,81.67
2018-07-11T03:22:24.867Z,81.57
2018-07-11T03:22:51.036Z,82.15
2018-07-11T03:23:17.207Z,82.06
2018-07-11T03:23:43.350Z,82.06
2018-07-11T03:24:09.477Z,81.77
2018-07-11T03:24:35.615Z,81.67
2018-07-11T03:25:01.754Z,81.86
2018-07-11T03:25:27.886Z,81.86
2018-07-11T03:25:54.021Z,81.77
2018-07-11T03:26:20.204Z,81.77
2018-07-11T03:26:46.344Z,81.77
2018-07-11T03:27:12.512Z,81.77
2018-07-11T03:27:38.648Z,81.77
2018-07-11T03:28:04.813Z,81.96
2018-07-11T03:28:30.956Z,81.86
2018-07-11T03:28:57.120Z,81.67
2018-07-11T03:29:23.259Z,82.06
2018-07-11T03:29:49.391Z,81.57
2018-07-11T03:30:15.532Z,81.54
2018-07-11T03:30:41.715Z,82.01
2018-07-11T03:31:07.928Z,81.54
2018-07-11T03:31:34.084Z,81.38
2018-07-11T03:32:00.244Z,81.48
2018-07-11T03:32:26.427Z,81.2
2018-07-11T03:32:52.542Z,81.34
2018-07-11T03:33:18.673Z,81.96
2018-07-11T03:33:44.853Z,81.57
2018-07-11T03:34:11.013Z,81.67
2018-07-11T03:34:37.145Z,81.86
2018-07-11T03:35:03.286Z,81.82
2018-07-11T03:35:29.447Z,82.01
2018-07-11T03:35:55.582Z,82.11
2018-07-11T03:36:21.735Z,81.82
2018-07-11T03:36:47.871Z,81.73
2018-07-11T03:37:14.005Z,81.48
2018-07-11T03:37:40.142Z,81.48
2018-07-11T03:38:06.274Z,82.15
2018-07-11T03:38:32.412Z,81.77
2018-07-11T03:38:58.553Z,81.86
2018-07-11T03:39:24.692Z,82.06
2018-07-11T03:39:50.881Z,81.57
2018-07-11T03:40:17.015Z,81.34
2018-07-11T03:40:43.180Z,81.96
2018-07-11T03:41:09.319Z,81.82
2018-07-11T03:41:35.483Z,81.77
2018-07-11T03:42:01.632Z,81.96
2018-07-11T03:42:27.754Z,81.29
2018-07-11T03:42:53.889Z,81.38
2018-07-11T03:43:20.015Z,81.48
2018-07-11T03:43:46.151Z,81.25
2018-07-11T03:44:12.285Z,81.38
2018-07-11T03:44:38.450Z,81.29
2018-07-11T03:45:04.583Z,81.48
2018-07-11T03:45:30.731Z,82.01
2018-07-11T03:45:56.860Z,81.54
2018-07-11T03:46:23.034Z,81.86
2018-07-11T03:46:49.195Z,81.73
2018-07-11T03:47:15.335Z,82.15
2018-07-11T03:47:41.468Z,81.82
2018-07-11T03:48:07.610Z,81.82
2018-07-11T03:48:33.766Z,81.54
2018-07-11T03:48:59.904Z,82.01
2018-07-11T03:49:26.043Z,82.06
2018-07-11T03:49:52.178Z,81.25
2018-07-11T03:50:18.310Z,81.25
2018-07-11T03:50:44.444Z,82.06
2018-07-11T03:51:10.581Z,81.44
2018-07-11T03:51:36.720Z,81.25
2018-07-11T03:52:02.855Z,81.38
2018-07-11T03:52:28.987Z,81.44
2018-07-11T03:52:55.127Z,81.48
2018-07-11T03:53:21.261Z,81.48
2018-07-11T03:53:47.459Z,81.48
2018-07-11T03:54:13.530Z,81.29
2018-07-11T03:54:39.699Z,81.48
2018-07-11T03:55:05.832Z,81.44
2018-07-11T03:55:31.971Z,81.38
2018-07-11T03:55:58.106Z,81.29
2018-07-11T03:56:24.244Z,81.38
2018-07-11T03:56:50.387Z,81.48
2018-07-11T03:57:16.547Z,81.67
2018-07-11T03:57:42.725Z,81.67
2018-07-11T03:58:08.883Z,81.48
2018-07-11T03:58:35.034Z,80.9
2018-07-11T03:59:01.159Z,81.05
2018-07-11T03:59:27.292Z,80.9
2018-07-11T03:59:53.452Z,80.71
2018-07-11T04:00:19.585Z,80.9
2018-07-11T04:00:45.719Z,80.9
2018-07-11T04:01:11.873Z,81.1
2018-07-11T04:01:38.035Z,80.9
2018-07-11T04:02:04.176Z,80.9
2018-07-11T04:02:30.309Z,81.2
2018-07-11T04:02:56.453Z,81.29
2018-07-11T04:03:22.583Z,81.1
2018-07-11T04:03:48.715Z,81
2018-07-11T04:04:14.851Z,80.62
2018-07-11T04:04:41.011Z,80.9
2018-07-11T04:05:07.165Z,80.52
2018-07-11T04:05:33.305Z,80.81
2018-07-11T04:05:59.471Z,80.62
2018-07-11T04:06:25.609Z,80.43
2018-07-11T04:06:51.773Z,80.62
2018-07-11T04:07:17.914Z,80.71
2018-07-11T04:07:44.048Z,80.71
2018-07-11T04:08:10.184Z,80.62
2018-07-11T04:08:36.319Z,80.52
2018-07-11T04:09:02.453Z,80.43
2018-07-11T04:09:28.596Z,80.62
2018-07-11T04:09:54.752Z,80.58
2018-07-11T04:10:20.912Z,80.62
2018-07-11T04:10:47.077Z,80.62
2018-07-11T04:11:13.219Z,80.71
2018-07-11T04:11:39.357Z,80.81
2018-07-11T04:12:05.497Z,80.71
2018-07-11T04:12:31.633Z,80.81
2018-07-11T04:12:57.789Z,80.67
2018-07-11T04:13:23.952Z,80.81
2018-07-11T04:13:50.094Z,80.87
2018-07-11T04:14:16.225Z,80.62
2018-07-11T04:14:42.367Z,80.71
2018-07-11T04:15:08.502Z,80.62
2018-07-11T04:15:34.689Z,80.62
2018-07-11T04:16:00.820Z,80.71
2018-07-11T04:16:26.981Z,80.71
2018-07-11T04:16:53.120Z,80.43
2018-07-11T04:17:19.270Z,80.62
2018-07-11T04:17:45.405Z,80.71
2018-07-11T04:18:11.586Z,80.58
2018-07-11T04:18:37.721Z,80.9
2018-07-11T04:19:03.890Z,80.71
2018-07-11T04:19:30.037Z,80.71
2018-07-11T04:19:56.176Z,80.77
2018-07-11T04:20:22.344Z,80.81
2018-07-11T04:20:48.484Z,80.71
2018-07-11T04:21:14.625Z,80.77
2018-07-11T04:21:40.759Z,80.43
2018-07-11T04:22:06.901Z,80.62
2018-07-11T04:22:33.036Z,80.52
2018-07-11T04:22:59.167Z,80.62
2018-07-11T04:23:25.308Z,80.43
2018-07-11T04:23:51.460Z,80.9
2018-07-11T04:24:17.597Z,80.52
2018-07-11T04:24:43.728Z,80.24
2018-07-11T04:25:09.859Z,80.24
2018-07-11T04:25:36.033Z,80.24
2018-07-11T04:26:02.184Z,80.1
2018-07-11T04:26:28.325Z,80.71
2018-07-11T04:26:54.472Z,80.14
2018-07-11T04:27:20.628Z,80.14
2018-07-11T04:27:46.763Z,80.1
2018-07-11T04:28:12.897Z,80.24
2018-07-11T04:28:39.047Z,80.24
2018-07-11T04:29:05.190Z,80.04
2018-07-11T04:29:31.377Z,80.24
2018-07-11T04:29:57.516Z,80.43
2018-07-11T04:30:23.660Z,80.24
2018-07-11T04:30:49.792Z,80.33
2018-07-11T04:31:15.925Z,80.43
2018-07-11T04:31:42.069Z,80.33
2018-07-11T04:32:08.202Z,80.24
2018-07-11T04:32:34.343Z,80.04
2018-07-11T04:33:00.483Z,80.43
2018-07-11T04:33:26.643Z,80.04
2018-07-11T04:33:52.749Z,80.14
2018-07-11T04:34:18.889Z,80.14
2018-07-11T04:34:45.031Z,79.85
2018-07-11T04:35:11.173Z,79.95
2018-07-11T04:35:37.303Z,79.95
2018-07-11T04:36:03.446Z,79.95
2018-07-11T04:36:29.608Z,79.95
2018-07-11T04:36:55.792Z,79.95
2018-07-11T04:37:21.927Z,79.75
2018-07-11T04:37:48.068Z,79.66
2018-07-11T04:38:14.211Z,79.66
2018-07-11T04:38:40.386Z,79.66
2018-07-11T04:39:06.522Z,79.95
2018-07-11T04:39:32.654Z,79.66
2018-07-11T04:39:58.794Z,79.57
2018-07-11T04:40:24.950Z,79.47
2018-07-11T04:40:51.081Z,79.66
2018-07-11T04:41:17.212Z,79.47
2018-07-11T04:41:43.348Z,79.57
2018-07-11T04:42:09.488Z,79.75
2018-07-11T04:42:35.655Z,79.37
2018-07-11T04:43:01.767Z,78.99
2018-07-11T04:43:27.899Z,79.37
2018-07-11T04:43:54.037Z,79.37
2018-07-11T04:44:20.172Z,79.57
2018-07-11T04:44:46.307Z,79.57
2018-07-11T04:45:12.452Z,79.37
2018-07-11T04:45:38.634Z,79.66
2018-07-11T04:46:04.775Z,79.28
2018-07-11T04:46:30.967Z,78.8
2018-07-11T04:46:57.129Z,78.99
2018-07-11T04:47:23.268Z,78.89
2018-07-11T04:47:49.425Z,79.18
2018-07-11T04:48:15.560Z,79.57
2018-07-11T04:48:41.690Z,78.8
2018-07-11T04:49:07.830Z,78.8
2018-07-11T04:49:33.961Z,78.89
2018-07-11T04:50:00.109Z,79.08
2018-07-11T04:50:26.272Z,78.89
2018-07-11T04:50:52.408Z,79.08
2018-07-11T04:51:18.547Z,79.28
2018-07-11T04:51:44.680Z,79.08
2018-07-11T04:52:10.847Z,78.51
2018-07-11T04:52:37.025Z,78.99
2018-07-11T04:53:03.120Z,79.18
2018-07-11T04:53:29.256Z,78.99
2018-07-11T04:53:55.415Z,79.37
2018-07-11T04:54:21.558Z,79.28
2018-07-11T04:54:47.689Z,78.8
2018-07-11T04:55:13.850Z,78.8
2018-07-11T04:55:40.011Z,78.7
2018-07-11T04:56:06.149Z,78.42
2018-07-11T04:56:32.293Z,78.89
2018-07-11T04:56:58.433Z,79.08
2018-07-11T04:57:24.572Z,79.18
2018-07-11T04:57:50.728Z,79.18
2018-07-11T04:58:16.864Z,79.18
2018-07-11T04:58:43.029Z,79.08
2018-07-11T04:59:09.164Z,79.08
2018-07-11T04:59:35.292Z,78.42
2018-07-11T05:00:01.442Z,78.89
2018-07-11T05:00:27.594Z,78.8
2018-07-11T05:00:53.756Z,78.8
2018-07-11T05:01:19.910Z,78.61
2018-07-11T05:01:46.071Z,78.89
2018-07-11T05:02:12.229Z,78.7
2018-07-11T05:02:38.374Z,78.61
2018-07-11T05:03:04.530Z,78.89
2018-07-11T05:03:30.677Z,78.74
2018-07-11T05:03:56.809Z,78.51
2018-07-11T05:04:22.973Z,78.45
2018-07-11T05:04:49.210Z,78.51
2018-07-11T05:05:15.244Z,78.42
2018-07-11T05:05:41.408Z,78.42
2018-07-11T05:06:07.575Z,78.64
2018-07-11T05:06:33.710Z,78.61
2018-07-11T05:06:59.846Z,78.64
2018-07-11T05:07:26.033Z,78.64
2018-07-11T05:07:52.163Z,78.27
2018-07-11T05:08:18.305Z,78.17
2018-07-11T05:08:44.467Z,78.07
2018-07-11T05:09:10.605Z,78.36
2018-07-11T05:09:36.767Z,78.36
2018-07-11T05:10:02.903Z,78.27
2018-07-11T05:10:29.081Z,77.69
2018-07-11T05:10:55.237Z,77.69
2018-07-11T05:11:21.397Z,77.59
2018-07-11T05:11:47.531Z,77.59
2018-07-11T05:12:13.678Z,76.73
2018-07-11T05:12:39.835Z,76.92
2018-07-11T05:13:05.974Z,77.02
2018-07-11T05:13:32.106Z,76.82
2018-07-11T05:13:58.246Z,76.82
2018-07-11T05:14:24.404Z,77.02
2018-07-11T05:14:50.591Z,77.02
2018-07-11T05:15:16.747Z,76.67
2018-07-11T05:15:42.912Z,76.57
2018-07-11T05:16:09.104Z,76.1
2018-07-11T05:16:35.180Z,76.29
2018-07-11T05:17:01.316Z,76.29
2018-07-11T05:17:27.458Z,76.48
2018-07-11T05:17:53.614Z,76.1
2018-07-11T05:18:19.782Z,76.19
2018-07-11T05:18:45.938Z,76.1
2018-07-11T05:19:12.093Z,75.43
2018-07-11T05:19:38.236Z,75.52
2018-07-11T05:20:04.369Z,74.95
2018-07-11T05:20:30.532Z,75.43
2018-07-11T05:20:56.662Z,75.52
2018-07-11T05:21:22.808Z,75.08
2018-07-11T05:21:48.940Z,75.18
2018-07-11T05:22:15.082Z,74.89
2018-07-11T05:22:41.221Z,75.18
2018-07-11T05:23:07.382Z,74.89
2018-07-11T05:23:33.523Z,74.98
2018-07-11T05:23:59.683Z,74.41
2018-07-11T05:24:25.822Z,74.31
2018-07-11T05:24:51.959Z,74.41
2018-07-11T05:25:18.127Z,74.12
2018-07-11T05:25:44.264Z,74.22
2018-07-11T05:26:10.403Z,74.12
2018-07-11T05:26:36.562Z,73.93
2018-07-11T05:27:02.712Z,74.02
2018-07-11T05:27:28.853Z,73.83
2018-07-11T05:27:55.016Z,73.83
2018-07-11T05:28:21.147Z,73.93
2018-07-11T05:28:47.294Z,73.83
2018-07-11T05:29:13.420Z,73.26
2018-07-11T05:29:39.583Z,73.55
2018-07-11T05:30:05.715Z,74.12
2018-07-11T05:30:31.873Z,73.93
2018-07-11T05:30:58.009Z,74.31
2018-07-11T05:31:24.153Z,73.93
2018-07-11T05:31:50.298Z,74.12
2018-07-11T05:32:16.434Z,73.83
2018-07-11T05:32:42.571Z,74.12
2018-07-11T05:33:08.715Z,74.12
2018-07-11T05:33:34.852Z,73.83
2018-07-11T05:34:00.990Z,73.45
2018-07-11T05:34:27.125Z,73.55
2018-07-11T05:34:53.264Z,72.88
2018-07-11T05:35:19.401Z,72.97
2018-07-11T05:35:45.539Z,73.16
2018-07-11T05:36:11.698Z,73.26
2018-07-11T05:36:37.842Z,73.16
2018-07-11T05:37:03.984Z,73.07
2018-07-11T05:37:30.116Z,73.16
2018-07-11T05:37:56.257Z,72.88